sensor_id;sensor_type;location;lat;lon;timestamp;pressure;altitude;pressure_sealevel;temperature;humidity
74181;BME280;62544;50.826;14.354;2022-09-12T00:01:16;99290.11;;;13.25;96.20
74181;BME280;62544;50.826;14.354;2022-09-12T00:05:09;99288.73;;;13.21;96.26
74181;BME280;62544;50.826;14.354;2022-09-12T00:09:11;99287.08;;;13.19;96.34
74181;BME280;62544;50.826;14.354;2022-09-12T00:13:13;99284.69;;;13.15;96.64
74181;BME280;62544;50.826;14.354;2022-09-12T00:17:15;99283.25;;;13.13;96.35
74181;BME280;62544;50.826;14.354;2022-09-12T00:21:17;99282.51;;;13.13;96.11
74181;BME280;62544;50.826;14.354;2022-09-12T00:25:19;99281.97;;;13.14;95.91
74181;BME280;62544;50.826;14.354;2022-09-12T00:29:21;99282.19;;;13.16;95.69
74181;BME280;62544;50.826;14.354;2022-09-12T00:33:23;99283.59;;;13.18;95.57
74181;BME280;62544;50.826;14.354;2022-09-12T00:37:25;99284.37;;;13.20;95.36
74181;BME280;62544;50.826;14.354;2022-09-12T00:41:34;99284.52;;;13.21;95.21
74181;BME280;62544;50.826;14.354;2022-09-12T00:45:29;99283.15;;;13.21;95.31
74181;BME280;62544;50.826;14.354;2022-09-12T00:49:42;99283.45;;;13.22;95.25
74181;BME280;62544;50.826;14.354;2022-09-12T00:53:33;99281.81;;;13.24;95.34
74181;BME280;62544;50.826;14.354;2022-09-12T00:57:36;99280.35;;;13.26;95.09
74181;BME280;62544;50.826;14.354;2022-09-12T01:01:37;99279.22;;;13.27;95.02
74181;BME280;62544;50.826;14.354;2022-09-12T01:05:43;99277.95;;;13.28;94.94
74181;BME280;62544;50.826;14.354;2022-09-12T01:09:41;99276.20;;;13.30;95.02
74181;BME280;62544;50.826;14.354;2022-09-12T01:13:43;99274.24;;;13.32;95.09
74181;BME280;62544;50.826;14.354;2022-09-12T01:38:05;99269.09;;;13.46;95.35
74181;BME280;62544;50.826;14.354;2022-09-12T01:42:01;99268.81;;;13.49;95.40
74181;BME280;62544;50.826;14.354;2022-09-12T01:46:18;99267.99;;;13.51;95.35
74181;BME280;62544;50.826;14.354;2022-09-12T01:50:03;99268.20;;;13.54;95.27
74181;BME280;62544;50.826;14.354;2022-09-12T01:54:09;99268.61;;;13.57;95.21
74181;BME280;62544;50.826;14.354;2022-09-12T02:02:11;99267.97;;;13.61;95.28
74181;BME280;62544;50.826;14.354;2022-09-12T02:06:14;99266.88;;;13.63;95.13
74181;BME280;62544;50.826;14.354;2022-09-12T02:10:15;99264.83;;;13.66;94.92
74181;BME280;62544;50.826;14.354;2022-09-12T02:14:14;99262.14;;;13.70;94.63
74181;BME280;62544;50.826;14.354;2022-09-12T02:18:15;99258.54;;;13.72;94.67
74181;BME280;62544;50.826;14.354;2022-09-12T02:22:17;99255.30;;;13.72;94.97
74181;BME280;62544;50.826;14.354;2022-09-12T02:26:20;99252.58;;;13.71;94.75
74181;BME280;62544;50.826;14.354;2022-09-12T02:30:21;99249.63;;;13.70;94.63
74181;BME280;62544;50.826;14.354;2022-09-12T02:34:26;99245.73;;;13.69;94.54
74181;BME280;62544;50.826;14.354;2022-09-12T02:38:31;99242.19;;;13.67;94.86
74181;BME280;62544;50.826;14.354;2022-09-12T02:42:26;99240.26;;;13.65;95.05
74181;BME280;62544;50.826;14.354;2022-09-12T02:46:38;99239.59;;;13.63;94.94
74181;BME280;62544;50.826;14.354;2022-09-12T02:50:31;99239.59;;;13.61;95.41
74181;BME280;62544;50.826;14.354;2022-09-12T02:54:32;99239.69;;;13.60;95.33
74181;BME280;62544;50.826;14.354;2022-09-12T02:58:34;99239.61;;;13.60;95.24
74181;BME280;62544;50.826;14.354;2022-09-12T03:18:50;99242.28;;;13.62;95.00
74181;BME280;62544;50.826;14.354;2022-09-12T03:22:54;99243.34;;;13.63;94.87
74181;BME280;62544;50.826;14.354;2022-09-12T03:30:50;99244.16;;;13.66;94.81
74181;BME280;62544;50.826;14.354;2022-09-12T03:34:52;99244.17;;;13.67;94.71
74181;BME280;62544;50.826;14.354;2022-09-12T03:38:55;99243.39;;;13.69;94.75
74181;BME280;62544;50.826;14.354;2022-09-12T03:42:56;99242.02;;;13.70;94.71
74181;BME280;62544;50.826;14.354;2022-09-12T03:46:58;99241.27;;;13.72;94.64
74181;BME280;62544;50.826;14.354;2022-09-12T03:51:01;99239.75;;;13.73;94.70
74181;BME280;62544;50.826;14.354;2022-09-12T03:55:03;99239.94;;;13.74;94.70
74181;BME280;62544;50.826;14.354;2022-09-12T03:59:05;99239.82;;;13.75;94.72
74181;BME280;62544;50.826;14.354;2022-09-12T04:03:06;99240.25;;;13.77;94.64
74181;BME280;62544;50.826;14.354;2022-09-12T04:07:09;99240.80;;;13.78;94.59
74181;BME280;62544;50.826;14.354;2022-09-12T04:11:11;99240.65;;;13.79;94.68
74181;BME280;62544;50.826;14.354;2022-09-12T04:15:12;99241.41;;;13.81;94.56
74181;BME280;62544;50.826;14.354;2022-09-12T04:19:14;99243.06;;;13.82;94.64
74181;BME280;62544;50.826;14.354;2022-09-12T04:23:16;99245.01;;;13.83;94.70
74181;BME280;62544;50.826;14.354;2022-09-12T04:27:18;99246.80;;;13.84;94.57
74181;BME280;62544;50.826;14.354;2022-09-12T04:31:20;99247.81;;;13.85;94.61
74181;BME280;62544;50.826;14.354;2022-09-12T04:35:22;99246.58;;;13.85;94.58
74181;BME280;62544;50.826;14.354;2022-09-12T04:39:24;99247.05;;;13.83;94.68
74181;BME280;62544;50.826;14.354;2022-09-12T04:43:26;99245.83;;;13.82;94.77
74181;BME280;62544;50.826;14.354;2022-09-12T04:47:28;99246.59;;;13.81;94.71
74181;BME280;62544;50.826;14.354;2022-09-12T04:51:31;99246.41;;;13.82;94.72
74181;BME280;62544;50.826;14.354;2022-09-12T04:55:33;99247.49;;;13.83;94.65
74181;BME280;62544;50.826;14.354;2022-09-12T04:59:34;99250.08;;;13.84;94.71
74181;BME280;62544;50.826;14.354;2022-09-12T05:03:36;99252.72;;;13.87;94.58
74181;BME280;62544;50.826;14.354;2022-09-12T05:07:38;99254.06;;;13.90;94.41
74181;BME280;62544;50.826;14.354;2022-09-12T05:11:41;99255.74;;;13.92;94.46
74181;BME280;62544;50.826;14.354;2022-09-12T05:15:42;99257.72;;;13.95;94.50
74181;BME280;62544;50.826;14.354;2022-09-12T05:19:44;99259.06;;;13.97;94.58
74181;BME280;62544;50.826;14.354;2022-09-12T05:23:49;99261.22;;;14.00;94.41
74181;BME280;62544;50.826;14.354;2022-09-12T05:27:50;99263.92;;;14.03;94.43
74181;BME280;62544;50.826;14.354;2022-09-12T05:31:50;99265.45;;;14.07;94.33
74181;BME280;62544;50.826;14.354;2022-09-12T05:35:52;99266.41;;;14.12;94.05
74181;BME280;62544;50.826;14.354;2022-09-12T05:39:54;99267.78;;;14.16;93.93
74181;BME280;62544;50.826;14.354;2022-09-12T05:43:58;99270.31;;;14.20;93.92
74181;BME280;62544;50.826;14.354;2022-09-12T05:47:58;99272.64;;;14.25;93.97
74181;BME280;62544;50.826;14.354;2022-09-12T05:52:00;99275.36;;;14.30;93.64
74181;BME280;62544;50.826;14.354;2022-09-12T05:56:09;99276.95;;;14.37;91.24
74181;BME280;62544;50.826;14.354;2022-09-12T06:00:05;99279.18;;;14.43;92.22
74181;BME280;62544;50.826;14.354;2022-09-12T06:04:06;99281.08;;;14.50;91.32
74181;BME280;62544;50.826;14.354;2022-09-12T06:08:08;99281.91;;;14.58;91.23
74181;BME280;62544;50.826;14.354;2022-09-12T06:12:10;99280.70;;;14.63;90.29
74181;BME280;62544;50.826;14.354;2022-09-12T06:16:13;99280.06;;;14.66;90.67
74181;BME280;62544;50.826;14.354;2022-09-12T06:20:14;99280.15;;;14.73;91.17
74181;BME280;62544;50.826;14.354;2022-09-12T06:24:17;99281.55;;;14.84;90.19
74181;BME280;62544;50.826;14.354;2022-09-12T06:28:18;99282.67;;;14.94;88.38
74181;BME280;62544;50.826;14.354;2022-09-12T06:32:20;99284.42;;;15.02;89.48
74181;BME280;62544;50.826;14.354;2022-09-12T06:36:23;99286.35;;;15.10;89.19
74181;BME280;62544;50.826;14.354;2022-09-12T06:40:24;99288.23;;;15.17;88.09
74181;BME280;62544;50.826;14.354;2022-09-12T06:44:26;99289.23;;;15.20;88.37
74181;BME280;62544;50.826;14.354;2022-09-12T06:48:28;99291.08;;;15.23;87.61
74181;BME280;62544;50.826;14.354;2022-09-12T06:52:30;99292.47;;;15.25;88.24
74181;BME280;62544;50.826;14.354;2022-09-12T06:56:32;99293.70;;;15.28;88.16
74181;BME280;62544;50.826;14.354;2022-09-12T07:00:34;99296.26;;;15.33;87.66
74181;BME280;62544;50.826;14.354;2022-09-12T07:04:36;99299.46;;;15.38;87.05
74181;BME280;62544;50.826;14.354;2022-09-12T07:08:38;99302.87;;;15.45;87.67
74181;BME280;62544;50.826;14.354;2022-09-12T07:12:40;99305.41;;;15.51;86.56
74181;BME280;62544;50.826;14.354;2022-09-12T07:16:42;99307.75;;;15.58;86.38
74181;BME280;62544;50.826;14.354;2022-09-12T07:20:44;99310.00;;;15.66;86.40
74181;BME280;62544;50.826;14.354;2022-09-12T07:24:46;99311.81;;;15.75;84.46
74181;BME280;62544;50.826;14.354;2022-09-12T07:28:51;99315.02;;;15.83;84.14
74181;BME280;62544;50.826;14.354;2022-09-12T07:32:53;99316.46;;;15.89;83.87
74181;BME280;62544;50.826;14.354;2022-09-12T07:36:52;99318.55;;;15.97;82.69
74181;BME280;62544;50.826;14.354;2022-09-12T07:40:54;99320.65;;;16.04;82.17
74181;BME280;62544;50.826;14.354;2022-09-12T07:44:56;99323.10;;;16.13;80.80
74181;BME280;62544;50.826;14.354;2022-09-12T07:48:59;99324.83;;;16.27;80.46
74181;BME280;62544;50.826;14.354;2022-09-12T07:53:00;99328.02;;;16.43;79.67
74181;BME280;62544;50.826;14.354;2022-09-12T07:57:02;99330.92;;;16.64;77.06
74181;BME280;62544;50.826;14.354;2022-09-12T08:01:08;99331.69;;;16.79;77.15
74181;BME280;62544;50.826;14.354;2022-09-12T08:05:06;99333.25;;;17.00;74.72
74181;BME280;62544;50.826;14.354;2022-09-12T08:09:08;99334.25;;;17.21;74.55
74181;BME280;62544;50.826;14.354;2022-09-12T08:13:10;99335.14;;;17.41;74.00
74181;BME280;62544;50.826;14.354;2022-09-12T08:17:12;99334.50;;;17.57;74.39
74181;BME280;62544;50.826;14.354;2022-09-12T08:21:18;99334.04;;;17.67;72.75
74181;BME280;62544;50.826;14.354;2022-09-12T08:25:16;99333.95;;;17.75;74.62
74181;BME280;62544;50.826;14.354;2022-09-12T08:29:18;99334.14;;;17.85;72.73
74181;BME280;62544;50.826;14.354;2022-09-12T08:33:20;99333.40;;;17.99;71.73
74181;BME280;62544;50.826;14.354;2022-09-12T08:37:22;99332.51;;;18.10;71.07
74181;BME280;62544;50.826;14.354;2022-09-12T08:41:43;99331.47;;;18.20;71.83
74181;BME280;62544;50.826;14.354;2022-09-12T08:45:33;99330.19;;;18.38;68.56
74181;BME280;62544;50.826;14.354;2022-09-12T08:49:29;99328.03;;;18.66;67.93
74181;BME280;62544;50.826;14.354;2022-09-12T08:53:30;99327.04;;;18.89;64.92
74181;BME280;62544;50.826;14.354;2022-09-12T08:57:32;99327.08;;;18.96;68.13
74181;BME280;62544;50.826;14.354;2022-09-12T09:01:36;99326.09;;;19.05;68.42
74181;BME280;62544;50.826;14.354;2022-09-12T09:05:44;99326.07;;;19.15;66.04
74181;BME280;62544;50.826;14.354;2022-09-12T09:09:50;99325.29;;;19.23;67.08
74181;BME280;62544;50.826;14.354;2022-09-12T09:13:56;99324.17;;;19.29;66.77
74181;BME280;62544;50.826;14.354;2022-09-12T09:17:47;99323.33;;;19.36;67.78
74181;BME280;62544;50.826;14.354;2022-09-12T09:21:54;99320.92;;;19.53;65.46
74181;BME280;62544;50.826;14.354;2022-09-12T09:25:56;99317.67;;;19.85;61.83
74181;BME280;62544;50.826;14.354;2022-09-12T09:29:49;99315.80;;;20.21;57.90
74181;BME280;62544;50.826;14.354;2022-09-12T09:33:51;99314.81;;;20.38;60.17
74181;BME280;62544;50.826;14.354;2022-09-12T09:37:56;99312.53;;;20.44;60.00
74181;BME280;62544;50.826;14.354;2022-09-12T09:42:11;99309.51;;;20.51;59.37
74181;BME280;62544;50.826;14.354;2022-09-12T09:45:56;99307.48;;;20.69;57.45
74181;BME280;62544;50.826;14.354;2022-09-12T09:49:58;99305.33;;;20.92;57.27
74181;BME280;62544;50.826;14.354;2022-09-12T09:54:02;99303.07;;;21.18;55.72
74181;BME280;62544;50.826;14.354;2022-09-12T09:58:02;99303.09;;;21.32;55.31
74181;BME280;62544;50.826;14.354;2022-09-12T10:02:18;99302.32;;;21.48;55.01
74181;BME280;62544;50.826;14.354;2022-09-12T10:06:07;99300.66;;;21.62;55.76
74181;BME280;62544;50.826;14.354;2022-09-12T10:10:18;99298.40;;;21.74;53.79
74181;BME280;62544;50.826;14.354;2022-09-12T10:14:27;99297.09;;;21.82;54.54
74181;BME280;62544;50.826;14.354;2022-09-12T10:18:15;99297.36;;;21.83;54.35
74181;BME280;62544;50.826;14.354;2022-09-12T10:22:16;99297.83;;;21.85;53.26
74181;BME280;62544;50.826;14.354;2022-09-12T10:26:17;99297.38;;;21.88;52.43
74181;BME280;62544;50.826;14.354;2022-09-12T10:30:19;99296.88;;;21.86;53.18
74181;BME280;62544;50.826;14.354;2022-09-12T10:34:21;99296.41;;;21.67;57.26
74181;BME280;62544;50.826;14.354;2022-09-12T10:38:23;99295.67;;;21.52;56.03
74181;BME280;62544;50.826;14.354;2022-09-12T10:46:27;99293.24;;;21.56;53.60
74181;BME280;62544;50.826;14.354;2022-09-12T10:50:35;99292.13;;;21.66;51.87
74181;BME280;62544;50.826;14.354;2022-09-12T10:54:30;99291.67;;;21.82;53.93
74181;BME280;62544;50.826;14.354;2022-09-12T10:58:35;99290.42;;;21.99;51.64
74181;BME280;62544;50.826;14.354;2022-09-12T11:06:55;99288.87;;;22.23;51.92
74181;BME280;62544;50.826;14.354;2022-09-12T11:22:56;99282.62;;;23.11;45.58
74181;BME280;62544;50.826;14.354;2022-09-12T11:26:52;99280.13;;;23.04;48.92
74181;BME280;62544;50.826;14.354;2022-09-12T11:35:03;99274.62;;;23.08;47.83
74181;BME280;62544;50.826;14.354;2022-09-12T11:39:04;99271.03;;;23.14;46.06
74181;BME280;62544;50.826;14.354;2022-09-12T11:42:59;99266.93;;;23.34;47.21
74181;BME280;62544;50.826;14.354;2022-09-12T11:46:56;99263.34;;;23.58;47.25
74181;BME280;62544;50.826;14.354;2022-09-12T11:50:58;99260.71;;;23.91;46.13
74181;BME280;62544;50.826;14.354;2022-09-12T11:59:03;99257.36;;;24.52;42.57
74181;BME280;62544;50.826;14.354;2022-09-12T12:03:15;99255.30;;;25.11;36.98
74181;BME280;62544;50.826;14.354;2022-09-12T12:07:08;99254.60;;;25.67;36.57
74181;BME280;62544;50.826;14.354;2022-09-12T12:11:09;99252.37;;;25.81;40.04
74181;BME280;62544;50.826;14.354;2022-09-12T12:15:12;99249.34;;;25.82;40.77
74181;BME280;62544;50.826;14.354;2022-09-12T12:23:21;99243.76;;;26.57;36.41
74181;BME280;62544;50.826;14.354;2022-09-12T12:27:24;99239.97;;;27.18;34.80
74181;BME280;62544;50.826;14.354;2022-09-12T12:31:19;99237.09;;;27.83;33.11
74181;BME280;62544;50.826;14.354;2022-09-12T12:39:53;99231.20;;;27.57;40.12
74181;BME280;62544;50.826;14.354;2022-09-12T12:43:29;99229.94;;;26.99;42.35
74181;BME280;62544;50.826;14.354;2022-09-12T12:59:33;99221.09;;;26.48;36.80
74181;BME280;62544;50.826;14.354;2022-09-12T13:03:35;99217.81;;;26.89;34.41
74181;BME280;62544;50.826;14.354;2022-09-12T13:07:37;99212.98;;;27.32;33.45
74181;BME280;62544;50.826;14.354;2022-09-12T13:11:39;99211.33;;;27.17;38.04
74181;BME280;62544;50.826;14.354;2022-09-12T13:15:45;99211.36;;;26.46;42.64
74181;BME280;62544;50.826;14.354;2022-09-12T13:19:43;99210.03;;;26.16;40.13
74181;BME280;62544;50.826;14.354;2022-09-12T13:23:57;99208.28;;;26.73;32.14
74181;BME280;62544;50.826;14.354;2022-09-12T13:31:55;99198.15;;;27.74;32.22
74181;BME280;62544;50.826;14.354;2022-09-12T13:40:14;99191.52;;;26.67;42.17
74181;BME280;62544;50.826;14.354;2022-09-12T13:43:55;99188.61;;;25.98;42.52
74181;BME280;62544;50.826;14.354;2022-09-12T13:47:58;99184.26;;;25.73;40.58
74181;BME280;62544;50.826;14.354;2022-09-12T13:52:00;99179.64;;;25.86;36.47
74181;BME280;62544;50.826;14.354;2022-09-12T13:56:01;99175.23;;;26.24;34.46
74181;BME280;62544;50.826;14.354;2022-09-12T14:04:14;99167.35;;;27.18;33.96
74181;BME280;62544;50.826;14.354;2022-09-12T14:08:07;99165.41;;;26.98;36.97
74181;BME280;62544;50.826;14.354;2022-09-12T14:12:18;99163.76;;;26.75;36.30
74181;BME280;62544;50.826;14.354;2022-09-12T14:16:11;99162.34;;;26.72;36.20
74181;BME280;62544;50.826;14.354;2022-09-12T14:20:13;99159.74;;;26.96;33.47
74181;BME280;62544;50.826;14.354;2022-09-12T14:24:15;99156.47;;;27.36;31.65
74181;BME280;62544;50.826;14.354;2022-09-12T14:28:17;99153.72;;;27.92;31.71
74181;BME280;62544;50.826;14.354;2022-09-12T14:32:20;99151.26;;;28.57;30.02
74181;BME280;62544;50.826;14.354;2022-09-12T14:36:22;99150.02;;;29.16;28.09
74181;BME280;62544;50.826;14.354;2022-09-12T14:40:23;99149.52;;;29.47;29.40
74181;BME280;62544;50.826;14.354;2022-09-12T14:44:25;99148.61;;;29.67;29.26
74181;BME280;62544;50.826;14.354;2022-09-12T14:48:27;99148.50;;;29.83;29.73
74181;BME280;62544;50.826;14.354;2022-09-12T14:52:29;99148.41;;;29.79;30.79
74181;BME280;62544;50.826;14.354;2022-09-12T14:56:40;99148.15;;;29.61;32.18
74181;BME280;62544;50.826;14.354;2022-09-12T15:00:33;99148.00;;;29.34;32.92
74181;BME280;62544;50.826;14.354;2022-09-12T15:04:41;99146.92;;;28.94;34.68
74181;BME280;62544;50.826;14.354;2022-09-12T15:08:36;99147.74;;;28.23;38.36
74181;BME280;62544;50.826;14.354;2022-09-12T15:12:38;99148.39;;;27.35;41.29
74181;BME280;62544;50.826;14.354;2022-09-12T15:16:41;99148.78;;;26.43;43.26
74181;BME280;62544;50.826;14.354;2022-09-12T15:20:43;99149.30;;;25.48;45.90
74181;BME280;62544;50.826;14.354;2022-09-12T15:24:44;99148.95;;;24.70;48.39
74181;BME280;62544;50.826;14.354;2022-09-12T15:28:47;99148.47;;;24.08;48.71
74181;BME280;62544;50.826;14.354;2022-09-12T15:32:49;99147.61;;;23.60;48.80
74181;BME280;62544;50.826;14.354;2022-09-12T15:36:51;99146.28;;;23.21;51.07
74181;BME280;62544;50.826;14.354;2022-09-12T15:40:53;99145.54;;;22.88;51.70
74181;BME280;62544;50.826;14.354;2022-09-12T15:44:55;99144.86;;;22.59;53.01
74181;BME280;62544;50.826;14.354;2022-09-12T15:48:57;99144.34;;;22.33;55.55
74181;BME280;62544;50.826;14.354;2022-09-12T15:52:59;99142.81;;;22.07;57.98
74181;BME280;62544;50.826;14.354;2022-09-12T15:57:01;99141.18;;;21.82;58.17
74181;BME280;62544;50.826;14.354;2022-09-12T16:01:03;99140.38;;;21.57;59.04
74181;BME280;62544;50.826;14.354;2022-09-12T16:05:05;99139.40;;;21.35;59.32
74181;BME280;62544;50.826;14.354;2022-09-12T16:09:07;99138.72;;;21.13;59.45
74181;BME280;62544;50.826;14.354;2022-09-12T16:13:09;99136.33;;;20.91;60.78
74181;BME280;62544;50.826;14.354;2022-09-12T16:17:11;99134.61;;;20.69;62.00
74181;BME280;62544;50.826;14.354;2022-09-12T16:21:13;99132.47;;;20.46;61.96
74181;BME280;62544;50.826;14.354;2022-09-12T16:25:15;99129.71;;;20.22;61.88
74181;BME280;62544;50.826;14.354;2022-09-12T16:29:17;99127.53;;;19.98;63.52
74181;BME280;62544;50.826;14.354;2022-09-12T16:33:18;99126.01;;;19.74;65.02
74181;BME280;62544;50.826;14.354;2022-09-12T16:37:21;99124.69;;;19.51;65.64
74181;BME280;62544;50.826;14.354;2022-09-12T16:41:23;99123.13;;;19.27;66.48
74181;BME280;62544;50.826;14.354;2022-09-12T16:45:25;99122.34;;;19.04;67.29
74181;BME280;62544;50.826;14.354;2022-09-12T16:49:26;99121.71;;;18.76;67.63
74181;BME280;62544;50.826;14.354;2022-09-12T16:53:29;99122.09;;;18.48;68.83
74181;BME280;62544;50.826;14.354;2022-09-12T16:57:31;99120.99;;;18.20;69.37
74181;BME280;62544;50.826;14.354;2022-09-12T17:01:33;99119.83;;;17.92;70.23
74181;BME280;62544;50.826;14.354;2022-09-12T17:05:34;99118.91;;;17.66;70.97
74181;BME280;62544;50.826;14.354;2022-09-12T17:09:37;99117.01;;;17.40;71.43
74181;BME280;62544;50.826;14.354;2022-09-12T17:13:39;99115.39;;;17.14;72.75
74181;BME280;62544;50.826;14.354;2022-09-12T17:17:40;99114.45;;;16.89;73.42
74181;BME280;62544;50.826;14.354;2022-09-12T17:21:43;99113.78;;;16.63;73.96
74181;BME280;62544;50.826;14.354;2022-09-12T17:25:48;99112.56;;;16.39;75.15
74181;BME280;62544;50.826;14.354;2022-09-12T17:29:46;99111.35;;;16.16;75.36
74181;BME280;62544;50.826;14.354;2022-09-12T17:33:48;99110.92;;;15.93;76.04
74181;BME280;62544;50.826;14.354;2022-09-12T17:37:50;99110.16;;;15.72;75.77
74181;BME280;62544;50.826;14.354;2022-09-12T17:41:52;99110.01;;;15.51;76.79
74181;BME280;62544;50.826;14.354;2022-09-12T17:45:55;99109.55;;;15.32;77.39
74181;BME280;62544;50.826;14.354;2022-09-12T17:49:56;99110.05;;;15.13;77.65
74181;BME280;62544;50.826;14.354;2022-09-12T17:54:08;99110.49;;;14.96;78.24
74181;BME280;62544;50.826;14.354;2022-09-12T17:58:00;99111.55;;;14.79;77.95
74181;BME280;62544;50.826;14.354;2022-09-12T18:02:02;99113.30;;;14.63;79.25
74181;BME280;62544;50.826;14.354;2022-09-12T18:06:05;99114.23;;;14.48;79.81
74181;BME280;62544;50.826;14.354;2022-09-12T18:10:07;99115.16;;;14.34;81.56
74181;BME280;62544;50.826;14.354;2022-09-12T18:14:08;99115.74;;;14.21;80.66
74181;BME280;62544;50.826;14.354;2022-09-12T18:18:10;99117.07;;;14.09;80.86
74181;BME280;62544;50.826;14.354;2022-09-12T18:22:12;99118.24;;;13.97;80.71
74181;BME280;62544;50.826;14.354;2022-09-12T18:26:14;99118.59;;;13.86;80.75
74181;BME280;62544;50.826;14.354;2022-09-12T18:30:17;99118.77;;;13.74;81.18
74181;BME280;62544;50.826;14.354;2022-09-12T18:34:18;99118.22;;;13.63;81.62
74181;BME280;62544;50.826;14.354;2022-09-12T18:38:21;99118.11;;;13.53;82.29
74181;BME280;62544;50.826;14.354;2022-09-12T18:42:25;99117.61;;;13.43;83.17
74181;BME280;62544;50.826;14.354;2022-09-12T18:46:25;99116.94;;;13.34;82.80
74181;BME280;62544;50.826;14.354;2022-09-12T18:50:26;99115.93;;;13.24;84.53
74181;BME280;62544;50.826;14.354;2022-09-12T18:54:28;99116.77;;;13.16;84.06
74181;BME280;62544;50.826;14.354;2022-09-12T18:58:31;99117.94;;;13.06;83.61
74181;BME280;62544;50.826;14.354;2022-09-12T19:02:32;99119.64;;;12.96;83.99
74181;BME280;62544;50.826;14.354;2022-09-12T19:06:36;99120.86;;;12.85;84.03
74181;BME280;62544;50.826;14.354;2022-09-12T19:10:36;99122.09;;;12.73;84.19
74181;BME280;62544;50.826;14.354;2022-09-12T19:14:38;99123.17;;;12.61;84.31
74181;BME280;62544;50.826;14.354;2022-09-12T19:18:41;99123.77;;;12.48;84.92
74181;BME280;62544;50.826;14.354;2022-09-12T19:22:42;99124.73;;;12.37;86.71
74181;BME280;62544;50.826;14.354;2022-09-12T19:26:44;99124.75;;;12.25;85.73
74181;BME280;62544;50.826;14.354;2022-09-12T19:30:46;99124.98;;;12.13;85.27
74181;BME280;62544;50.826;14.354;2022-09-12T19:34:50;99124.58;;;12.00;85.54
74181;BME280;62544;50.826;14.354;2022-09-12T19:38:50;99122.97;;;11.87;85.25
74181;BME280;62544;50.826;14.354;2022-09-12T19:42:52;99120.72;;;11.73;85.67
74181;BME280;62544;50.826;14.354;2022-09-12T19:46:54;99118.70;;;11.59;86.09
74181;BME280;62544;50.826;14.354;2022-09-12T19:51:00;99116.06;;;11.47;86.75
74181;BME280;62544;50.826;14.354;2022-09-12T19:54:58;99115.52;;;11.37;87.21
74181;BME280;62544;50.826;14.354;2022-09-12T19:59:00;99113.87;;;11.28;87.49
74181;BME280;62544;50.826;14.354;2022-09-12T20:03:05;99111.42;;;11.20;87.96
74181;BME280;62544;50.826;14.354;2022-09-12T20:07:04;99108.56;;;11.13;88.66
74181;BME280;62544;50.826;14.354;2022-09-12T20:11:07;99107.79;;;11.05;89.43
74181;BME280;62544;50.826;14.354;2022-09-12T20:15:09;99106.97;;;10.99;89.55
74181;BME280;62544;50.826;14.354;2022-09-12T20:19:10;99107.12;;;10.93;90.16
74181;BME280;62544;50.826;14.354;2022-09-12T20:23:12;99106.66;;;10.86;89.48
74181;BME280;62544;50.826;14.354;2022-09-12T20:27:14;99107.11;;;10.78;89.83
74181;BME280;62544;50.826;14.354;2022-09-12T20:31:16;99107.53;;;10.69;89.95
74181;BME280;62544;50.826;14.354;2022-09-12T20:35:18;99107.12;;;10.59;89.27
74181;BME280;62544;50.826;14.354;2022-09-12T20:39:20;99106.17;;;10.47;89.18
74181;BME280;62544;50.826;14.354;2022-09-12T20:43:22;99107.01;;;10.37;90.56
74181;BME280;62544;50.826;14.354;2022-09-12T20:47:24;99107.87;;;10.27;90.43
74181;BME280;62544;50.826;14.354;2022-09-12T20:51:26;99107.53;;;10.17;90.39
74181;BME280;62544;50.826;14.354;2022-09-12T20:55:28;99107.28;;;10.07;90.09
74181;BME280;62544;50.826;14.354;2022-09-12T20:59:30;99106.52;;;9.96;90.11
74181;BME280;62544;50.826;14.354;2022-09-12T21:03:35;99104.11;;;9.86;91.10
74181;BME280;62544;50.826;14.354;2022-09-12T21:07:34;99102.11;;;9.77;90.27
74181;BME280;62544;50.826;14.354;2022-09-12T21:11:36;99100.58;;;9.67;90.99
74181;BME280;62544;50.826;14.354;2022-09-12T21:15:38;99098.19;;;9.58;91.19
74181;BME280;62544;50.826;14.354;2022-09-12T21:19:40;99097.07;;;9.50;90.97
74181;BME280;62544;50.826;14.354;2022-09-12T21:23:42;99095.54;;;9.42;91.43
74181;BME280;62544;50.826;14.354;2022-09-12T21:27:44;99094.34;;;9.36;91.42
74181;BME280;62544;50.826;14.354;2022-09-12T21:31:46;99092.81;;;9.31;91.34
74181;BME280;62544;50.826;14.354;2022-09-12T21:35:48;99093.54;;;9.27;91.66
74181;BME280;62544;50.826;14.354;2022-09-12T21:39:50;99092.52;;;9.24;91.43
74181;BME280;62544;50.826;14.354;2022-09-12T21:43:52;99091.58;;;9.23;91.69
74181;BME280;62544;50.826;14.354;2022-09-12T21:47:54;99090.29;;;9.21;91.43
74181;BME280;62544;50.826;14.354;2022-09-12T21:51:56;99088.59;;;9.18;91.56
74181;BME280;62544;50.826;14.354;2022-09-12T21:56:05;99087.81;;;9.16;91.80
74181;BME280;62544;50.826;14.354;2022-09-12T22:00:00;99087.20;;;9.13;91.85
74181;BME280;62544;50.826;14.354;2022-09-12T22:04:02;99087.06;;;9.12;92.20
74181;BME280;62544;50.826;14.354;2022-09-12T22:08:07;99084.89;;;9.09;91.74
74181;BME280;62544;50.826;14.354;2022-09-12T22:12:06;99083.37;;;9.06;92.21
74181;BME280;62544;50.826;14.354;2022-09-12T22:16:08;99081.27;;;9.02;92.15
74181;BME280;62544;50.826;14.354;2022-09-12T22:20:10;99079.66;;;8.98;91.85
74181;BME280;62544;50.826;14.354;2022-09-12T22:24:12;99078.33;;;8.93;92.35
74181;BME280;62544;50.826;14.354;2022-09-12T22:28:14;99075.81;;;8.90;92.51
74181;BME280;62544;50.826;14.354;2022-09-12T22:32:16;99072.97;;;8.87;92.90
74181;BME280;62544;50.826;14.354;2022-09-12T22:36:18;99070.61;;;8.85;92.88
74181;BME280;62544;50.826;14.354;2022-09-12T22:40:20;99066.29;;;8.81;92.59
74181;BME280;62544;50.826;14.354;2022-09-12T22:44:22;99062.13;;;8.79;92.71
74181;BME280;62544;50.826;14.354;2022-09-12T22:48:24;99058.11;;;8.76;92.71